Abbotsford, Australia

2:37 AM AEDT on December 08, 2016 (GMT +1100)
Collingwood | | Change Station

Elev 102 ft 37.80 °S, 144.99 °E | Updated 30 seconds ago

Clear
Clear
70.0 °F
Feels Like 70.0 °F
N
2.7
Wind Variable Wind from NNE

Today
High -- | Low -- °F
--% Chance of Precip.
Yesterday
High -- | Low -- °F
Precip. -- in
Pressure 29.50 in
Visibility -9999.0 miles
Clouds
Dew Point 44 °F
Humidity 39%
Rainfall 0.00 in
Snow Depth Not available.
5:51 AM 8:32 PM
First Quarter, 53% visible
SPECI YMML 071530Z 01026G37KT CAVOK 22/01 Q0999 FM1530 MOD/SEV TURB BLW 5000FT FM1800 SEV TURB BLW 5000FT
Pressure 29.50 in
Visibility -9999.0 miles
Clouds
Dew Point 44 °F
Humidity 39%
Rainfall 0.00 in
Snow Depth Not available.
5:51 AM 8:32 PM
First Quarter, 53% visible
SPECI YMML 071530Z 01026G37KT CAVOK 22/01 Q0999 FM1530 MOD/SEV TURB BLW 5000FT FM1800 SEV TURB BLW 5000FT

10-Day Weather Forecast

×

Almanac

Astronomy

Dec. 08, 2016 Rise Set
Actual Time
Civil Twilight
Nautical Twilight
Astronomical Twilight
Moon
Length of Visible Light
Length of Day
Tomorrow will be .
, % of the Moon is Illuminated

Today's Extremes

Country Highs Country Lows

Community

WunderPhotos

Upload Photos

1,956,118 photos uploaded!

WunderBlog® & News

Nearby

Air Quality

  Air Quality AQ Index Pollutant
Not available.

Snow Depth

Station Depth Elevation

Earthquake Activity

City Distance Mag. Time & Date
Minimum magnitude displayed is 2.5.

Coastal Water Temperatures

Place Temperature

Stations

Nearby Weather Stations

Station Location Temp. Windchill Dew Point Humidity Wind Precip. Elev Updated Type